SKBQ/BAQ METAR and TAF weather

Enter ICAO airport designator
Station Type Date Time Source
SKBQ METAR 2020/02/26 10:44 UTC NOAA

SKBQ 261044Z 06008KT 1500 -DZ BR BKN006 25/24 A2985 BECMG FM1100 -DZ FG


Station Type Date Time Source
SKBQ Decoded METAR 2020/02/26 10:44 UTC NOAA

Barranquilla / Ernestocortissoz, Colombia (SKBQ) 10-53N 074-47W 30M
Feb 26, 2020 - 05:44 AM EST / 2020.02.26 1044 UTC
Wind: from the ENE (060 degrees) at 9 MPH (8 KT):0
Visibility: less than 1 mile:0
Sky conditions: mostly cloudy
Weather: light drizzle; mist
Temperature: 77 F (25 C)
Dew Point: 75 F (24 C)
Relative Humidity: 94%
Pressure (altimeter): 29.85 in. Hg (1010 hPa)
ob: SKBQ 261044Z 06008KT 1500 -DZ BR BKN006 25/24 A2985 BECMG FM1100 -DZ FG
cycle: 10

Station Type Date Time Source
SKBQ TAF 2020/02/26 12:47 UTC NOAA

TAF SKBQ 261030Z 2612/2712 01005KT 9999 FEW015
TEMPO 2612/2614 2000 BR BKN005
BECMG 2614/2616 36015KT TX32/2617Z TN24/2711Z

Example: see airport list